Aviation Digital Data Service (ADDS)

Output produced by TAFs form (0347 UTC 23 October 2014)
found at http://aviationweather.gov/adds/tafs/
 
KFMN 222329Z 2300/2324 30006KT P6SM FEW100 
     FM230600 07006KT P6SM SKC 
     FM232100 25007KT P6SM SKC